createdAt,value
2018-12-19T00:00:04.285Z,79.98
2018-12-19T00:02:32.620Z,80.10
2018-12-19T00:05:01.495Z,80.12
2018-12-19T00:07:29.796Z,80.31
2018-12-19T00:09:58.504Z,80.26
2018-12-19T00:12:26.830Z,80.31
2018-12-19T00:14:55.157Z,79.95
2018-12-19T00:17:23.498Z,80.20
2018-12-19T00:19:51.822Z,80.26
2018-12-19T00:22:20.156Z,80.08
2018-12-19T00:24:48.499Z,80.01
2018-12-19T00:27:16.846Z,79.91
2018-12-19T00:29:45.169Z,79.97
2018-12-19T00:32:13.503Z,79.89
2018-12-19T00:34:41.846Z,79.85
2018-12-19T00:37:10.243Z,79.66
2018-12-19T00:39:38.568Z,79.95
2018-12-19T00:42:06.903Z,79.98
2018-12-19T00:44:35.240Z,79.90
2018-12-19T00:47:03.573Z,80.00
2018-12-19T00:49:31.897Z,80.12
2018-12-19T00:52:00.227Z,80.06
2018-12-19T00:54:28.576Z,79.93
2018-12-19T00:56:56.896Z,79.77
2018-12-19T00:59:25.223Z,79.90
2018-12-19T01:01:53.570Z,79.67
2018-12-19T01:04:21.882Z,79.74
2018-12-19T01:06:50.217Z,80.04
2018-12-19T01:09:18.543Z,79.92
2018-12-19T01:11:47.185Z,79.94
2018-12-19T01:14:15.512Z,80.05
2018-12-19T01:16:43.837Z,80.06
2018-12-19T01:19:12.167Z,79.94
2018-12-19T01:21:40.500Z,80.04
2018-12-19T01:24:08.846Z,80.04
2018-12-19T01:26:37.176Z,80.14
2018-12-19T01:29:05.502Z,80.13
2018-12-19T01:31:33.836Z,80.07
2018-12-19T01:34:02.170Z,80.02
2018-12-19T01:36:30.506Z,79.86
2018-12-19T01:38:58.829Z,79.65
2018-12-19T01:41:27.169Z,79.53
2018-12-19T01:43:55.492Z,79.51
2018-12-19T01:46:23.814Z,79.46
2018-12-19T01:48:52.145Z,79.26
2018-12-19T01:51:20.480Z,79.64
2018-12-19T01:53:48.811Z,79.62
2018-12-19T01:56:17.139Z,79.40
2018-12-19T01:58:45.476Z,80.16
2018-12-19T02:01:13.799Z,80.53
2018-12-19T02:03:42.136Z,80.62
2018-12-19T02:06:10.462Z,80.47
2018-12-19T02:08:38.806Z,80.53
2018-12-19T02:11:07.148Z,80.44
2018-12-19T02:13:35.476Z,80.39
2018-12-19T02:16:03.801Z,80.26
2018-12-19T02:18:32.129Z,80.38
2018-12-19T02:21:01.431Z,80.20
2018-12-19T02:23:29.761Z,80.28
2018-12-19T02:25:58.103Z,80.03
2018-12-19T02:28:26.419Z,80.35
2018-12-19T02:30:54.766Z,80.38
2018-12-19T02:33:23.100Z,80.70
2018-12-19T02:35:51.426Z,80.74
2018-12-19T02:38:19.763Z,80.74
2018-12-19T02:40:48.099Z,80.70
2018-12-19T02:43:16.423Z,80.66
2018-12-19T02:45:44.743Z,80.57
2018-12-19T02:48:13.094Z,80.62
2018-12-19T02:50:41.426Z,80.53
2018-12-19T02:53:09.753Z,80.44
2018-12-19T02:55:38.074Z,80.96
2018-12-19T02:58:06.407Z,80.94
2018-12-19T03:00:34.740Z,80.90
2018-12-19T03:03:03.066Z,80.83
2018-12-19T03:05:31.429Z,80.67
2018-12-19T03:07:59.723Z,80.99
2018-12-19T03:10:28.052Z,81.06
2018-12-19T03:12:56.378Z,81.06
2018-12-19T03:15:24.789Z,81.11
2018-12-19T03:17:53.109Z,81.04
2018-12-19T03:20:21.433Z,81.00
2018-12-19T03:22:49.771Z,80.97
2018-12-19T03:25:18.086Z,80.86
2018-12-19T03:27:46.440Z,80.71
2018-12-19T03:30:14.772Z,80.59
2018-12-19T03:32:43.093Z,80.55
2018-12-19T03:35:11.428Z,80.57
2018-12-19T03:37:39.763Z,80.54
2018-12-19T03:40:08.092Z,80.67
2018-12-19T03:42:36.421Z,80.52
2018-12-19T03:45:04.753Z,80.70
2018-12-19T03:47:33.078Z,80.90
2018-12-19T03:50:01.432Z,81.06
2018-12-19T03:52:29.954Z,80.95
2018-12-19T03:54:58.056Z,80.77
2018-12-19T03:57:26.387Z,80.78
2018-12-19T03:59:54.709Z,80.75
2018-12-19T04:02:23.049Z,80.61
2018-12-19T04:04:51.376Z,80.91
2018-12-19T04:07:19.704Z,80.91
2018-12-19T04:09:48.035Z,80.94
2018-12-19T04:12:16.357Z,80.90
2018-12-19T04:14:44.688Z,80.83
2018-12-19T04:17:13.019Z,80.82
2018-12-19T04:19:41.341Z,80.71
2018-12-19T04:22:09.667Z,80.74
2018-12-19T04:24:37.995Z,80.53
2018-12-19T04:27:06.323Z,80.52
2018-12-19T04:29:34.647Z,80.77
2018-12-19T04:32:02.986Z,81.10
2018-12-19T04:34:31.322Z,81.21
2018-12-19T04:36:59.649Z,81.17
2018-12-19T04:39:27.987Z,81.18
2018-12-19T04:41:56.316Z,81.08
2018-12-19T04:44:24.869Z,81.14
2018-12-19T04:46:52.971Z,81.11
2018-12-19T04:49:21.325Z,81.15
2018-12-19T04:51:49.661Z,81.20
2018-12-19T04:54:17.982Z,81.28
2018-12-19T04:56:46.338Z,81.49
2018-12-19T04:59:14.702Z,81.54
2018-12-19T05:01:43.050Z,81.38
2018-12-19T05:04:11.362Z,81.49
2018-12-19T05:06:39.692Z,81.71
2018-12-19T05:09:08.017Z,81.62
2018-12-19T05:11:36.361Z,81.47
2018-12-19T05:14:04.685Z,81.65
2018-12-19T05:16:33.043Z,81.77
2018-12-19T05:19:01.679Z,81.92
2018-12-19T05:21:30.020Z,82.01
2018-12-19T05:23:58.592Z,81.73
2018-12-19T05:26:26.692Z,81.75
2018-12-19T05:28:55.016Z,81.61
2018-12-19T05:31:23.365Z,81.78
2018-12-19T05:33:51.695Z,81.81
2018-12-19T05:36:20.039Z,82.19
2018-12-19T05:38:48.374Z,81.98
2018-12-19T05:41:16.709Z,82.19
2018-12-19T05:43:45.352Z,82.21
2018-12-19T05:46:13.676Z,81.97
2018-12-19T05:48:42.001Z,82.27
2018-12-19T05:51:10.337Z,82.20
2018-12-19T05:53:38.670Z,82.01
2018-12-19T05:56:07.003Z,81.87
2018-12-19T05:58:35.372Z,81.60
2018-12-19T06:01:03.685Z,81.78
2018-12-19T06:03:32.007Z,82.16
2018-12-19T06:06:00.343Z,82.17
2018-12-19T06:08:28.668Z,82.37
2018-12-19T06:10:57.000Z,82.59
2018-12-19T06:13:25.327Z,82.86
2018-12-19T06:15:53.658Z,82.77
2018-12-19T06:18:21.986Z,83.10
2018-12-19T06:20:50.315Z,83.14
2018-12-19T06:23:18.664Z,83.30
2018-12-19T06:25:46.991Z,83.29
2018-12-19T06:28:15.333Z,83.65
2018-12-19T06:30:43.674Z,83.58
2018-12-19T06:33:12.012Z,83.84
2018-12-19T06:35:40.336Z,83.88
2018-12-19T06:38:08.667Z,83.38
2018-12-19T06:40:37.000Z,83.51
2018-12-19T06:43:05.361Z,83.48
2018-12-19T06:45:33.679Z,83.47
2018-12-19T06:48:02.010Z,83.39
2018-12-19T06:50:30.351Z,83.30
2018-12-19T06:52:58.675Z,83.58
2018-12-19T06:55:27.002Z,83.38
2018-12-19T06:57:55.332Z,83.15
2018-12-19T07:00:23.664Z,83.13
2018-12-19T07:02:52.741Z,83.45
2018-12-19T07:05:21.166Z,83.98
2018-12-19T07:07:49.493Z,83.69
2018-12-19T07:10:17.839Z,83.09
2018-12-19T07:12:46.199Z,83.36
2018-12-19T07:15:14.542Z,83.42
2018-12-19T07:17:43.098Z,83.25
2018-12-19T07:20:11.203Z,83.42
2018-12-19T07:22:39.620Z,83.42
2018-12-19T07:25:07.961Z,83.42
2018-12-19T07:27:36.300Z,83.26
2018-12-19T07:30:04.910Z,82.95
2018-12-19T07:32:33.240Z,82.93
2018-12-19T07:35:01.588Z,82.96
2018-12-19T07:37:29.967Z,83.17
2018-12-19T07:39:58.268Z,83.34
2018-12-19T07:42:26.588Z,83.03
2018-12-19T07:44:54.921Z,82.76
2018-12-19T07:47:23.480Z,82.38
2018-12-19T07:49:51.585Z,82.26
2018-12-19T07:52:19.906Z,82.13
2018-12-19T07:54:48.249Z,82.05
2018-12-19T07:57:16.595Z,82.34
2018-12-19T07:59:44.939Z,82.46
2018-12-19T08:02:13.293Z,82.24
2018-12-19T08:04:41.623Z,82.17
2018-12-19T08:07:10.016Z,82.22
2018-12-19T08:09:38.383Z,82.20
2018-12-19T08:12:07.075Z,82.18
2018-12-19T08:14:35.421Z,81.96
2018-12-19T08:17:03.744Z,81.71
2018-12-19T08:19:32.113Z,81.54
2018-12-19T08:22:00.440Z,81.59
2018-12-19T08:24:28.779Z,81.59
2018-12-19T08:26:57.135Z,81.51
2018-12-19T08:29:25.472Z,81.57
2018-12-19T08:31:53.826Z,81.36
2018-12-19T08:34:22.150Z,81.52
2018-12-19T08:36:50.490Z,81.53
2018-12-19T08:39:18.834Z,81.40
2018-12-19T08:41:47.178Z,81.26
2018-12-19T08:44:15.511Z,81.35
2018-12-19T08:46:43.839Z,81.25
2018-12-19T08:49:12.165Z,81.23
2018-12-19T08:51:40.515Z,81.28
2018-12-19T08:54:08.850Z,81.08
2018-12-19T08:56:37.182Z,81.01
2018-12-19T08:59:05.508Z,80.96
2018-12-19T09:01:33.840Z,80.64
2018-12-19T09:04:02.185Z,80.56
2018-12-19T09:06:30.538Z,80.41
2018-12-19T09:08:58.882Z,80.34
2018-12-19T09:11:27.216Z,80.12
2018-12-19T09:13:55.864Z,79.76
2018-12-19T09:16:24.200Z,79.66
2018-12-19T09:18:52.525Z,79.46
2018-12-19T09:21:20.862Z,79.16
2018-12-19T09:23:49.189Z,78.87
2018-12-19T09:26:17.524Z,78.97
2018-12-19T09:28:45.887Z,78.64
2018-12-19T09:31:14.216Z,78.46
2018-12-19T09:33:42.801Z,78.32
2018-12-19T09:36:10.926Z,78.41
2018-12-19T09:38:39.251Z,78.24
2018-12-19T09:41:12.315Z,77.95
2018-12-19T09:43:35.920Z,77.85
2018-12-19T09:46:04.602Z,77.87
2018-12-19T09:48:32.943Z,77.86
2018-12-19T09:51:01.280Z,77.72
2018-12-19T09:53:29.613Z,77.69
2018-12-19T09:55:57.951Z,77.47
2018-12-19T09:58:26.295Z,77.53
2018-12-19T10:00:54.626Z,77.39
2018-12-19T10:03:22.957Z,77.22
2018-12-19T10:05:51.281Z,76.62
2018-12-19T10:08:19.615Z,76.79
2018-12-19T10:10:47.961Z,76.54
2018-12-19T10:13:16.287Z,76.53
2018-12-19T10:15:44.615Z,76.54
2018-12-19T10:18:13.915Z,76.52
2018-12-19T10:20:41.292Z,76.24
2018-12-19T10:23:09.625Z,76.15
2018-12-19T10:25:37.986Z,76.21
2018-12-19T10:28:06.309Z,76.17
2018-12-19T10:30:34.655Z,76.03
2018-12-19T10:33:02.987Z,76.30
2018-12-19T10:35:31.328Z,76.24
2018-12-19T10:37:59.665Z,76.29
2018-12-19T10:40:27.998Z,76.23
2018-12-19T10:42:56.645Z,76.31
2018-12-19T10:45:24.985Z,76.57
2018-12-19T10:47:53.321Z,76.62
2018-12-19T10:50:21.657Z,76.38
2018-12-19T10:52:49.977Z,76.57
2018-12-19T10:55:18.311Z,76.59
2018-12-19T10:57:46.644Z,76.42
2018-12-19T11:00:14.978Z,76.56
2018-12-19T11:02:43.306Z,76.58
2018-12-19T11:05:11.643Z,76.46
2018-12-19T11:07:39.982Z,76.39
2018-12-19T11:10:08.330Z,76.60
2018-12-19T11:12:36.658Z,76.24
2018-12-19T11:15:05.002Z,76.02
2018-12-19T11:17:33.327Z,76.10
2018-12-19T11:20:01.748Z,76.25
2018-12-19T11:22:30.090Z,76.34
2018-12-19T11:24:58.468Z,76.52
2018-12-19T11:27:26.797Z,76.48
2018-12-19T11:29:55.342Z,76.67
2018-12-19T11:32:23.676Z,76.46
2018-12-19T11:34:52.027Z,76.45
2018-12-19T11:37:20.364Z,76.41
2018-12-19T11:39:48.714Z,76.29
2018-12-19T11:42:17.031Z,76.13
2018-12-19T11:44:45.368Z,75.85
2018-12-19T11:47:13.690Z,75.69
2018-12-19T11:49:42.019Z,75.80
2018-12-19T11:52:10.377Z,75.61
2018-12-19T11:54:38.697Z,75.50
2018-12-19T11:57:07.036Z,75.35
2018-12-19T11:59:35.389Z,74.32
2018-12-19T12:02:03.716Z,74.23
2018-12-19T12:04:32.050Z,74.45
2018-12-19T12:07:00.405Z,74.76
2018-12-19T12:09:28.751Z,74.72
2018-12-19T12:11:57.099Z,74.40
2018-12-19T12:14:25.661Z,74.57
2018-12-19T12:16:53.781Z,74.91
2018-12-19T12:19:22.116Z,74.89
2018-12-19T12:21:50.460Z,74.87
2018-12-19T12:24:18.809Z,74.56
2018-12-19T12:26:47.136Z,74.37
2018-12-19T12:29:15.470Z,73.67
2018-12-19T12:31:44.314Z,74.07
2018-12-19T12:34:12.417Z,73.94
2018-12-19T12:36:40.749Z,73.87
2018-12-19T12:39:09.092Z,74.08
2018-12-19T12:41:37.414Z,74.22
2018-12-19T12:44:05.743Z,74.37
2018-12-19T12:46:34.079Z,73.89
2018-12-19T12:49:02.419Z,73.73
2018-12-19T12:51:31.097Z,73.91
2018-12-19T12:53:59.664Z,73.87
2018-12-19T12:56:27.860Z,73.58
2018-12-19T12:58:56.265Z,73.22
2018-12-19T13:01:24.546Z,73.38
2018-12-19T13:03:52.880Z,73.59
2018-12-19T13:06:21.213Z,73.47
2018-12-19T13:08:49.533Z,73.60
2018-12-19T13:11:17.876Z,74.04
2018-12-19T13:13:46.215Z,74.52
2018-12-19T13:16:14.563Z,74.47
2018-12-19T13:18:42.894Z,73.98
2018-12-19T13:21:11.234Z,74.09
2018-12-19T13:23:39.555Z,74.27
2018-12-19T13:26:07.920Z,73.45
2018-12-19T13:28:36.241Z,72.92
2018-12-19T13:31:04.598Z,72.88
2018-12-19T13:33:33.332Z,72.80
2018-12-19T13:36:01.438Z,72.97
2018-12-19T13:38:29.764Z,72.80
2018-12-19T13:40:58.323Z,73.12
2018-12-19T13:43:26.439Z,72.99
2018-12-19T13:45:54.776Z,72.97
2018-12-19T13:48:23.122Z,73.06
2018-12-19T13:50:51.464Z,72.91
2018-12-19T13:53:19.805Z,73.05
2018-12-19T13:55:48.147Z,72.80
2018-12-19T13:58:16.487Z,72.97
2018-12-19T14:00:44.809Z,73.10
2018-12-19T14:03:13.436Z,73.45
2018-12-19T14:05:41.800Z,73.64
2018-12-19T14:08:10.138Z,73.63
2018-12-19T14:10:38.468Z,73.56
2018-12-19T14:13:06.804Z,73.64
2018-12-19T14:15:35.138Z,73.67
2018-12-19T14:18:03.469Z,74.01
2018-12-19T14:20:31.806Z,73.85
2018-12-19T14:23:00.144Z,73.91
2018-12-19T14:25:28.518Z,74.08
2018-12-19T14:27:56.850Z,74.06
2018-12-19T14:30:25.519Z,73.89
2018-12-19T14:32:53.849Z,74.20
2018-12-19T14:35:22.213Z,74.40
2018-12-19T14:37:50.552Z,74.28
2018-12-19T14:40:18.906Z,74.14
2018-12-19T14:42:47.261Z,74.05
2018-12-19T14:45:15.599Z,74.42
2018-12-19T14:47:44.175Z,74.40
2018-12-19T14:50:12.286Z,74.53
2018-12-19T14:52:40.635Z,74.61
2018-12-19T14:55:09.664Z,74.56
2018-12-19T14:57:38.021Z,74.44
2018-12-19T15:00:06.362Z,74.69
2018-12-19T15:02:34.712Z,74.88
2018-12-19T15:05:03.107Z,74.83
2018-12-19T15:07:31.462Z,75.14
2018-12-19T15:09:59.829Z,74.87
2018-12-19T15:12:28.876Z,74.72
2018-12-19T15:14:57.233Z,74.70
2018-12-19T15:17:26.294Z,74.62
2018-12-19T15:19:54.631Z,74.83
2018-12-19T15:22:22.989Z,74.67
2018-12-19T15:24:51.558Z,74.65
2018-12-19T15:27:19.658Z,74.63
2018-12-19T15:29:53.415Z,74.44
2018-12-19T15:32:20.634Z,74.75
2018-12-19T15:34:48.961Z,75.05
2018-12-19T15:37:17.301Z,74.97
2018-12-19T15:39:45.643Z,74.90
2018-12-19T15:42:13.966Z,75.00
2018-12-19T15:44:45.806Z,74.87
2018-12-19T15:47:14.175Z,74.71
2018-12-19T15:49:43.177Z,74.65
2018-12-19T15:52:11.515Z,74.87
2018-12-19T15:54:39.853Z,74.82
2018-12-19T15:57:08.188Z,74.78
2018-12-19T15:59:36.539Z,74.67
2018-12-19T16:02:05.644Z,74.68
2018-12-19T16:04:33.984Z,74.56
2018-12-19T16:07:02.349Z,74.63
2018-12-19T16:09:30.649Z,74.78
2018-12-19T16:11:59.274Z,74.88
2018-12-19T16:14:27.388Z,75.04
2018-12-19T16:16:55.793Z,74.74
2018-12-19T16:19:24.119Z,75.05
2018-12-19T16:21:52.455Z,74.89
2018-12-19T16:24:20.791Z,75.08
2018-12-19T16:26:49.176Z,75.03
2018-12-19T16:29:17.631Z,74.79
2018-12-19T16:31:45.991Z,74.94
2018-12-19T16:34:14.320Z,75.10
2018-12-19T16:36:42.751Z,74.96
2018-12-19T16:39:11.212Z,75.04
2018-12-19T16:41:39.575Z,75.08
2018-12-19T16:44:07.953Z,74.84
2018-12-19T16:46:36.286Z,75.09
2018-12-19T16:49:04.755Z,75.15
2018-12-19T16:51:33.138Z,75.12
2018-12-19T16:54:01.490Z,75.00
2018-12-19T16:56:29.873Z,74.91
2018-12-19T16:58:58.249Z,75.05
2018-12-19T17:01:26.574Z,75.24
2018-12-19T17:03:54.903Z,75.27
2018-12-19T17:06:23.229Z,75.13
2018-12-19T17:08:51.575Z,75.24
2018-12-19T17:11:21.983Z,75.10
2018-12-19T17:13:48.258Z,75.10
2018-12-19T17:16:16.598Z,75.16
2018-12-19T17:18:44.927Z,75.10
2018-12-19T17:21:13.489Z,75.34
2018-12-19T17:23:41.613Z,75.45
2018-12-19T17:26:09.945Z,75.25
2018-12-19T17:28:38.296Z,75.16
2018-12-19T17:31:06.660Z,75.44
2018-12-19T17:33:35.103Z,75.13
2018-12-19T17:36:03.436Z,75.30
2018-12-19T17:38:31.761Z,75.25
2018-12-19T17:41:00.093Z,75.54
2018-12-19T17:43:28.418Z,75.50
2018-12-19T17:45:56.750Z,75.43
2018-12-19T17:48:25.122Z,75.53
2018-12-19T17:50:54.475Z,75.42
2018-12-19T17:53:22.815Z,75.67
2018-12-19T17:55:51.133Z,75.80
2018-12-19T17:58:19.685Z,75.83
2018-12-19T18:00:47.817Z,75.65
2018-12-19T18:03:16.153Z,75.45
2018-12-19T18:05:44.501Z,75.47
2018-12-19T18:08:12.865Z,75.74
2018-12-19T18:10:41.249Z,75.49
2018-12-19T18:13:09.520Z,75.48
2018-12-19T18:15:37.887Z,75.43
2018-12-19T18:18:06.225Z,75.73
2018-12-19T18:20:34.561Z,75.98
2018-12-19T18:23:02.896Z,76.22
2018-12-19T18:25:31.281Z,75.77
2018-12-19T18:27:59.626Z,75.73
2018-12-19T18:30:27.982Z,75.63
2018-12-19T18:32:56.333Z,75.88
2018-12-19T18:35:24.673Z,75.69
2018-12-19T18:37:53.038Z,75.89
2018-12-19T18:40:21.598Z,75.82
2018-12-19T18:42:49.929Z,75.99
2018-12-19T18:45:18.279Z,75.95
2018-12-19T18:47:46.775Z,75.78
2018-12-19T18:50:15.112Z,75.84
2018-12-19T18:52:43.439Z,76.02
2018-12-19T18:55:11.808Z,75.87
2018-12-19T18:57:40.127Z,75.87
2018-12-19T19:00:09.349Z,75.95
2018-12-19T19:02:37.648Z,75.78
2018-12-19T19:05:06.016Z,75.71
2018-12-19T19:07:34.306Z,76.14
2018-12-19T19:10:02.643Z,76.34
2018-12-19T19:12:31.535Z,76.04
2018-12-19T19:14:59.677Z,75.93
2018-12-19T19:17:28.010Z,76.08
2018-12-19T19:19:56.353Z,76.25
2018-12-19T19:22:24.717Z,76.41
2018-12-19T19:24:53.046Z,76.25
2018-12-19T19:27:23.184Z,76.24
2018-12-19T19:29:51.530Z,76.63
2018-12-19T19:32:19.873Z,76.49
2018-12-19T19:34:48.213Z,76.46
2018-12-19T19:37:16.551Z,76.54
2018-12-19T19:39:44.887Z,76.71
2018-12-19T19:42:13.241Z,76.56
2018-12-19T19:44:41.565Z,76.65
2018-12-19T19:47:09.933Z,76.76
2018-12-19T19:49:38.278Z,76.82
2018-12-19T19:52:06.652Z,76.89
2018-12-19T19:54:34.998Z,76.94
2018-12-19T19:57:03.342Z,76.97
2018-12-19T19:59:31.702Z,76.96
2018-12-19T20:02:00.015Z,76.99
2018-12-19T20:04:28.588Z,76.77
2018-12-19T20:07:00.047Z,76.88
2018-12-19T20:09:25.036Z,76.89
2018-12-19T20:11:53.385Z,76.69
2018-12-19T20:14:21.731Z,76.48
2018-12-19T20:16:55.806Z,76.65
2018-12-19T20:19:24.182Z,76.60
2018-12-19T20:21:52.543Z,76.78
2018-12-19T20:24:20.876Z,76.77
2018-12-19T20:26:49.236Z,76.32
2018-12-19T20:29:17.578Z,76.63
2018-12-19T20:31:45.908Z,76.42
2018-12-19T20:34:14.519Z,76.30
2018-12-19T20:36:43.166Z,76.54
2018-12-19T20:39:11.561Z,76.69
2018-12-19T20:41:40.147Z,76.75
2018-12-19T20:44:08.253Z,76.80
2018-12-19T20:46:36.748Z,76.94
2018-12-19T20:49:05.323Z,76.65
2018-12-19T20:51:33.419Z,76.57
2018-12-19T20:54:01.758Z,76.60
2018-12-19T20:56:30.120Z,76.89
2018-12-19T20:58:58.497Z,76.83
2018-12-19T21:01:26.813Z,76.58
2018-12-19T21:03:55.151Z,76.76
2018-12-19T21:06:23.524Z,76.71
2018-12-19T21:08:51.868Z,76.65
2018-12-19T21:11:20.218Z,76.89
2018-12-19T21:13:48.558Z,76.89
2018-12-19T21:16:16.901Z,76.60
2018-12-19T21:18:45.232Z,76.53
2018-12-19T21:21:13.740Z,76.54
2018-12-19T21:23:42.084Z,76.52
2018-12-19T21:26:10.459Z,76.61
2018-12-19T21:28:38.838Z,76.72
2018-12-19T21:31:07.192Z,76.53
2018-12-19T21:33:35.549Z,76.69
2018-12-19T21:36:04.004Z,76.96
2018-12-19T21:38:32.245Z,76.71
2018-12-19T21:41:00.636Z,76.76
2018-12-19T21:43:28.927Z,76.80
2018-12-19T21:45:57.267Z,76.70
2018-12-19T21:48:25.653Z,76.79
2018-12-19T21:50:53.944Z,76.39
2018-12-19T21:53:22.303Z,76.64
2018-12-19T21:55:50.636Z,76.49
2018-12-19T21:58:18.975Z,76.61
2018-12-19T22:00:47.309Z,76.28
2018-12-19T22:03:15.727Z,76.41
2018-12-19T22:05:44.970Z,76.41
2018-12-19T22:08:13.360Z,76.83
2018-12-19T22:10:41.629Z,76.67
2018-12-19T22:13:10.101Z,76.80
2018-12-19T22:15:38.597Z,76.70
2018-12-19T22:18:13.103Z,76.60
2018-12-19T22:20:41.416Z,76.34
2018-12-19T22:23:09.834Z,76.37
2018-12-19T22:25:38.152Z,76.26
2018-12-19T22:28:06.530Z,76.13
2018-12-19T22:30:35.016Z,76.32
2018-12-19T22:33:03.446Z,76.52
2018-12-19T22:35:31.957Z,76.46
2018-12-19T22:38:00.236Z,76.48
2018-12-19T22:40:28.649Z,76.55
2018-12-19T22:42:56.895Z,76.19
2018-12-19T22:45:25.236Z,76.35
2018-12-19T22:47:53.673Z,76.36
2018-12-19T22:50:22.059Z,76.20
2018-12-19T22:52:51.282Z,76.25
2018-12-19T22:55:19.639Z,76.42
2018-12-19T22:57:48.197Z,76.54
2018-12-19T23:00:16.543Z,76.65
2018-12-19T23:02:51.067Z,76.44
2018-12-19T23:05:19.156Z,76.13
2018-12-19T23:07:47.641Z,76.18
2018-12-19T23:10:16.093Z,76.31
2018-12-19T23:12:44.617Z,76.47
2018-12-19T23:15:13.004Z,76.09
2018-12-19T23:17:41.985Z,76.11
2018-12-19T23:20:10.330Z,76.10
2018-12-19T23:22:38.621Z,76.18
2018-12-19T23:25:07.048Z,76.34
2018-12-19T23:27:35.422Z,76.35
2018-12-19T23:30:03.660Z,76.53
2018-12-19T23:32:32.000Z,76.32
2018-12-19T23:35:00.431Z,76.21
2018-12-19T23:37:28.643Z,76.04
2018-12-19T23:39:56.968Z,76.03
2018-12-19T23:42:25.303Z,76.04
2018-12-19T23:44:53.642Z,76.21
2018-12-19T23:47:21.994Z,75.84
2018-12-19T23:49:50.362Z,76.09
2018-12-19T23:52:18.802Z,76.01
2018-12-19T23:54:46.956Z,75.57
2018-12-19T23:57:15.296Z,75.82
2018-12-19T23:59:43.630Z,76.07
